KAXS/AXS METAR and TAF weather

Enter ICAO airport designator
Station Type Date Time Source
KAXS METAR 2019/08/22 02:35 UTC NOAA

KAXS 220235Z AUTO 15010KT 7SM CLR 31/16 A2992 RMK AO2 T03060163


Station Type Date Time Source
KAXS Decoded METAR 2019/08/22 02:35 UTC NOAA

Station name not available
Aug 21, 2019 - 10:35 PM EDT / 2019.08.22 0235 UTC
Wind: from the SSE (150 degrees) at 12 MPH (10 KT):0
Visibility: 7 mile(s):0
Sky conditions: clear
Temperature: 87.1 F (30.6 C)
Dew Point: 61.3 F (16.3 C)
Relative Humidity: 42%
Pressure (altimeter): 29.92 in. Hg (1013 hPa)
ob: KAXS 220235Z AUTO 15010KT 7SM CLR 31/16 A2992 RMK AO2 T03060163
cycle: 2

Station Type Date Time Source
KAXS TAF UTC NOAA

Error!

Example: see airport list